Latest Weather Observations for Century Mine

IDQ60801

Issued at 8:02 am EST Monday 3 October 2022 (issued every 10 minutes, with the page automatically refreshed every 10 minutes)

About weather observations | Map of weather stations | Latest weather observations for QLD | Other Formats
Station Details ID: 029167 Name: CENTURY MINE Lat: -18.76 Lon: 138.71 Height: 126.8 m
Data from the previous 72 hours. | See also: Recent months at Century Mine
Date/Time
EST
Temp
°C
App
Temp
°C
Dew
Point
°C
Rel
Hum
%
Delta-T
°C
Wind Press
QNH
hPa
Press
MSL
hPa
Rain since
9am
mm
Dir  Spd
km/h
Gust
km/h
Spd
kts
Gust
kts
03/08:00am 26.8 26.6 9.2 33 9.7 CALM 0 0 0 0 1011.0 1010.2 0.0
03/07:30am 24.9 24.7 9.2 37 8.6 CALM 0 0 0 0 1010.8 1010.0 0.0
03/07:00am 24.1 22.7 9.7 40 7.9 SE 7 13 4 7 1010.4 1009.6 0.0
03/06:30am 22.4 21.7 10.2 46 6.7 S 4 7 2 4 1009.8 1009.0 0.0
03/06:00am 23.6 22.4 10.3 43 7.4 ESE 7 9 4 5 1009.4 1008.6 0.0
03/05:30am 22.5 21.9 10.3 46 6.7 ESE 4 7 2 4 1009.5 1008.7 0.0
03/05:00am 22.0 22.1 10.2 47 6.5 CALM 0 0 0 0 1009.5 1008.7 0.0
03/04:30am 22.8 22.8 9.9 44 7.1 CALM 0 0 0 0 1009.1 1008.3 0.0
03/04:00am 23.1 23.2 10.2 44 7.1 CALM 0 0 0 0 1009.2 1008.4 0.0
03/03:30am 23.4 22.1 10.1 43 7.3 SSW 7 11 4 6 1009.1 1008.3 0.0
03/03:00am 22.0 21.8 9.2 44 6.9 CALM 0 0 0 0 1009.0 1008.2 0.0
03/02:30am 23.6 23.4 9.2 40 7.8 CALM 0 0 0 0 1009.0 1008.2 0.0
03/02:00am 25.2 23.9 9.1 36 8.8 SW 6 9 3 5 1009.4 1008.6 0.0
03/01:30am 26.1 24.7 9.0 34 9.4 ESE 6 9 3 5 1009.6 1008.8 0.0
03/01:00am 26.3 25.4 9.2 34 9.4 NW 4 7 2 4 1010.0 1009.2 0.0
03/12:30am 27.7 26.2 9.0 31 10.3 NW 7 9 4 5 1010.2 1009.4 0.0
03/12:00am 27.6 25.7 7.5 28 10.8 WNW 7 9 4 5 1010.4 1009.6 0.0
 
Date/Time
EST
Temp
°C
App
Temp
°C
Dew
Point
°C
Rel
Hum
%
Delta-T
°C
Wind Press
QNH
hPa
Press
MSL
hPa
Rain since
9am
mm
Dir  Spd
km/h
Gust
km/h
Spd
kts
Gust
kts
02/11:30pm 27.4 25.4 6.2 26 11.1 N 6 9 3 5 1010.7 1009.9 0.0
02/11:00pm 24.8 24.3 7.9 34 9.0 CALM 0 0 0 0 1010.8 1010.0 0.0
02/10:30pm 25.0 24.4 7.6 33 9.2 CALM 0 0 0 0 1010.8 1010.0 0.0
02/10:00pm 25.8 25.1 6.9 30 10.0 CALM 0 0 0 0 1010.7 1009.9 0.0
02/09:30pm 25.8 25.1 6.9 30 10.0 CALM 0 0 0 0 1010.5 1009.7 0.0
02/09:00pm 26.3 25.5 6.4 28 10.4 CALM 0 0 0 0 1010.3 1009.5 0.0
02/08:30pm 26.7 24.5 6.2 27 10.7 WSW 7 9 4 5 1009.9 1009.1 0.0
02/08:00pm 27.9 25.6 5.5 24 11.7 WSW 7 7 4 4 1009.7 1008.9 0.0
02/07:30pm 29.4 27.1 5.5 22 12.6 W 7 9 4 5 1009.6 1008.8 0.0
02/07:00pm 31.6 29.2 5.2 19 14.0 W 7 11 4 6 1009.4 1008.6 0.0
02/06:30pm 33.2 30.3 4.9 17 15.0 W 9 15 5 8 1009.1 1008.3 0.0
02/06:00pm 34.0 31.1 4.6 16 15.7 WSW 9 11 5 6 1008.7 1007.9 0.0
02/05:30pm 34.1 31.8 4.7 16 15.7 SSE 6 9 3 5 1008.4 1007.6 0.0
02/05:00pm 34.2 31.2 3.9 15 16.0 S 9 17 5 9 1008.2 1007.3 0.0
02/04:30pm 34.0 32.4 4.6 16 15.6 N 2 13 1 7 1008.1 1007.2 0.0
02/04:00pm 34.1 30.7 3.8 15 15.9 NW 11 15 6 8 1008.2 1007.3 0.0
02/03:30pm 34.6 32.6 4.2 15 16.1 E 4 13 2 7 1008.3 1007.5 0.0
02/03:00pm 33.8 31.1 3.6 15 15.8 SSE 7 13 4 7 1008.7 1007.9 0.0
02/02:30pm 33.8 30.7 3.6 15 15.8 S 9 20 5 11 1009.0 1008.2 0.0
02/02:00pm 34.1 30.5 2.8 14 16.2 SW 11 20 6 11 1009.1 1008.3 0.0
02/01:30pm 33.6 30.5 3.4 15 15.7 ESE 9 17 5 9 1009.5 1008.7 0.0
02/01:00pm 33.7 30.6 3.5 15 15.8 WSW 9 19 5 10 1009.8 1009.0 0.0
02/12:30pm 33.5 30.2 2.4 14 15.9 SSE 9 19 5 10 1010.2 1009.4 0.0
02/12:00pm 32.9 29.7 2.9 15 15.4 SE 9 17 5 9 1010.6 1009.8 0.0
02/11:30am 32.4 29.5 1.5 14 15.5 NE 6 15 3 8 1011.0 1010.2 0.0
02/11:00am 32.1 28.8 2.2 15 15.1 ESE 9 15 5 8 1011.3 1010.5 0.0
02/10:30am 31.5 28.4 3.5 17 14.4 SSE 9 17 5 9 1011.6 1010.8 0.0
02/10:00am 30.8 27.0 3.8 18 13.9 S 13 20 7 11 1011.8 1010.9 0.0
02/09:30am 28.9 25.6 4.4 21 12.6 S 11 17 6 9 1012.3 1011.4 0.0
02/09:00am 27.9 24.2 4.2 22 12.1 S 13 20 7 11 1012.3 1011.4 0.0
02/08:30am 27.6 24.3 4.6 23 11.8 S 11 15 6 8 1012.0 1011.1 0.0
02/08:00am 26.6 23.8 5.0 25 11.1 S 9 13 5 7 1011.6 1010.8 0.0
02/07:30am 25.3 23.1 5.5 28 10.2 SSW 6 7 3 4 1011.2 1010.4 0.0
02/07:00am 24.1 21.9 5.5 30 9.5 S 6 7 3 4 1010.9 1010.1 0.0
02/06:30am 24.0 21.3 5.4 30 9.4 SW 9 11 5 6 1010.6 1009.8 0.0
02/06:00am 23.2 21.1 5.6 32 8.9 S 6 9 3 5 1010.1 1009.3 0.0
02/05:30am 23.6 22.5 5.0 30 9.4 CALM 0 0 0 0 1010.3 1009.5 0.0
02/05:00am 24.4 23.2 4.7 28 9.9 CALM 0 0 0 0 1010.0 1009.2 0.0
02/04:30am 25.0 22.6 4.2 26 10.4 SSE 6 7 3 4 1009.6 1008.8 0.0
02/04:00am 25.4 22.8 4.0 25 10.7 S 7 11 4 6 1009.9 1009.1 0.0
02/03:30am 26.0 23.3 3.9 24 11.1 S 7 11 4 6 1010.3 1009.5 0.0
02/03:00am 26.1 23.3 3.4 23 11.3 SSW 7 11 4 6 1010.7 1009.9 0.0
02/02:30am 26.2 23.2 4.1 24 11.1 SSW 9 13 5 7 1010.8 1010.0 0.0
02/02:00am 25.8 22.7 3.7 24 11.0 SSW 9 11 5 6 1011.2 1010.4 0.0
02/01:30am 25.4 24.1 4.0 25 10.7 CALM 0 0 0 0 1011.8 1010.9 0.0
02/01:00am 26.1 24.8 4.0 24 11.1 CALM 0 6 0 3 1012.3 1011.4 0.0
02/12:30am 26.4 23.9 3.6 23 11.4 SSW 6 9 3 5 1012.4 1011.5 0.0
02/12:00am 26.6 23.8 3.2 22 11.6 SSW 7 9 4 5 1012.7 1011.8 0.0
 
Date/Time
EST
Temp
°C
App
Temp
°C
Dew
Point
°C
Rel
Hum
%
Delta-T
°C
Wind Press
QNH
hPa
Press
MSL
hPa
Rain since
9am
mm
Dir  Spd
km/h
Gust
km/h
Spd
kts
Gust
kts
01/11:30pm 25.5 23.5 4.6 26 10.6 SW 4 9 2 5 1012.9 1012.0 0.0
01/11:00pm 26.4 24.5 3.0 22 11.6 SSW 2 6 1 3 1012.7 1011.8 0.0
01/10:30pm 27.5 24.9 3.2 21 12.1 SW 6 6 3 3 1012.9 1012.0 0.0
01/10:00pm 27.7 25.0 2.7 20 12.4 S 6 7 3 4 1012.2 1011.3 0.0
01/09:30pm 28.2 25.3 2.4 19 12.8 S 7 9 4 5 1012.0 1011.1 0.0
01/09:00pm 29.0 25.9 1.5 17 13.5 SSE 7 11 4 6 1012.0 1011.1 0.0
01/08:30pm 29.6 26.1 1.1 16 13.9 SSE 9 13 5 7 1011.8 1010.9 0.0
01/08:00pm 29.9 26.3 0.5 15 14.2 S 9 15 5 8 1011.4 1010.6 0.0
01/07:30pm 30.4 26.7 -0.1 14 14.7 S 9 15 5 8 1010.9 1010.1 0.0
01/07:00pm 30.8 26.8 0.2 14 14.8 S 11 17 6 9 1010.5 1009.7 0.0
01/06:30pm 31.4 27.1 0.7 14 15.1 SSW 13 22 7 12 1010.1 1009.3 0.0
01/06:00pm 32.1 28.4 0.2 13 15.6 SSW 9 15 5 8 1009.8 1009.0 0.0
01/05:30pm 32.5 28.5 0.6 13 15.7 SSW 11 15 6 8 1009.4 1008.6 0.0
01/05:00pm 32.9 30.1 -0.2 12 16.2 SSW 4 9 2 5 1009.3 1008.5 0.0
01/04:30pm 32.5 29.7 -0.5 12 16.0 SSW 4 9 2 5 1009.5 1008.7 0.0
01/04:00pm 32.5 28.7 -0.5 12 16.0 WSW 9 13 5 7 1009.5 1008.7 0.0
01/03:30pm 32.6 28.6 0.6 13 15.8 S 11 15 6 8 1009.6 1008.8 0.0
01/03:00pm 32.5 28.5 0.6 13 15.8 SSE 11 19 6 10 1009.7 1008.9 0.0
01/02:30pm 33.1 28.8 1.0 13 16.0 S 13 20 7 11 1009.8 1009.0 0.0
01/02:00pm 33.5 29.2 1.3 13 16.2 SSE 13 20 7 11 1010.0 1009.2 0.0
01/01:30pm 32.8 28.5 0.8 13 15.9 S 13 20 7 11 1010.4 1009.6 0.0
01/01:00pm 33.5 29.5 0.2 12 16.4 S 11 19 6 10 1010.9 1010.1 0.0
01/12:30pm 34.1 30.1 0.7 12 16.7 SSE 11 19 6 10 1011.5 1010.7 0.0
01/12:00pm 33.4 29.3 2.3 14 15.9 SSE 13 26 7 14 1012.4 1011.5 0.0
01/11:30am 32.0 27.9 2.1 15 15.1 SSE 13 20 7 11 1012.9 1012.0 0.0
01/11:00am 31.3 26.9 2.5 16 14.6 SSE 15 24 8 13 1013.3 1012.4 0.0
01/10:30am 31.1 26.6 4.0 18 14.0 ESE 17 22 9 12 1013.8 1012.9 0.0
01/10:00am 30.0 25.1 3.9 19 13.4 ESE 19 26 10 14 1014.0 1013.1 0.0
01/09:30am 29.0 23.9 3.1 19 13.0 ESE 19 30 10 16 1014.1 1013.4 0.0
01/09:00am 27.8 22.6 3.5 21 12.2 ESE 20 28 11 15 1014.0 1013.3 0.0
01/08:30am 26.8 23.3 3.3 22 11.7 SE 11 20 6 11 1014.3 1013.6 0.0
01/08:00am 24.3 23.0 4.1 27 10.0 CALM 0 2 0 1 1014.1 1013.4 0.0
01/07:30am 21.4 20.3 5.3 35 8.0 CALM 0 0 0 0 1013.6 1012.9 0.0
01/07:00am 20.0 17.7 4.9 37 7.4 SSE 6 9 3 5 1013.4 1012.7 0.0
01/06:30am 20.4 19.0 3.6 33 8.0 CALM 0 0 0 0 1013.0 1012.3 0.0
01/06:00am 22.0 19.4 3.2 29 9.0 SSW 6 9 3 5 1012.7 1012.0 0.0
01/05:30am 22.5 19.3 3.1 28 9.3 SSW 9 11 5 6 1012.5 1011.8 0.0
01/05:00am 22.4 19.2 3.0 28 9.3 S 9 11 5 6 1012.2 1011.5 0.0
01/04:30am 22.4 19.2 3.0 28 9.3 SSW 9 11 5 6 1012.1 1011.4 0.0
01/04:00am 21.4 18.8 4.0 32 8.5 SSW 7 9 4 5 1012.2 1011.5 0.0
01/03:30am 21.3 18.8 4.0 32 8.4 S 6 9 3 5 1012.2 1011.5 0.0
01/03:00am 21.5 18.8 2.7 29 8.9 S 6 9 3 5 1012.2 1011.5 0.0
01/02:30am 22.6 19.3 2.7 27 9.5 SSW 9 11 5 6 1012.4 1011.7 0.0
01/02:00am 23.0 19.7 2.5 26 9.8 S 9 11 5 6 1012.5 1011.8 0.0
01/01:30am 23.0 19.7 2.5 26 9.8 S 9 11 5 6 1012.7 1012.0 0.0
01/01:00am 23.6 20.7 2.4 25 10.2 SSW 7 9 4 5 1012.8 1012.1 0.0
01/12:30am 23.8 21.1 2.6 25 10.2 SSW 6 7 3 4 1013.1 1012.4 0.0
01/12:00am 24.6 21.6 2.1 23 10.8 S 7 9 4 5 1013.3 1012.6 0.0
 
Date/Time
EST
Temp
°C
App
Temp
°C
Dew
Point
°C
Rel
Hum
%
Delta-T
°C
Wind Press
QNH
hPa
Press
MSL
hPa
Rain since
9am
mm
Dir  Spd
km/h
Gust
km/h
Spd
kts
Gust
kts
30/11:30pm 25.2 22.2 2.0 22 11.2 S 7 9 4 5 1013.9 1013.2 0.0
30/11:00pm 26.0 22.9 1.3 20 11.8 S 7 9 4 5 1014.0 1013.3 0.0
30/10:30pm 27.1 23.9 0.8 18 12.5 SE 7 9 4 5 1014.1 1013.4 0.0
30/10:00pm 27.3 23.7 0.9 18 12.6 SE 9 11 5 6 1014.0 1013.3 0.0
30/09:30pm 27.6 23.6 0.4 17 12.9 SE 11 15 6 8 1013.7 1013.0 0.0
30/09:00pm 27.6 24.0 0.4 17 12.9 ESE 9 13 5 7 1013.8 1013.1 0.0
30/08:30pm 28.5 24.9 0.3 16 13.5 ESE 9 13 5 7 1013.9 1013.2 0.0
30/08:00pm 29.0 24.9 -0.2 15 13.9 ESE 11 17 6 9 1013.6 1012.9 0.0
30/07:30pm 29.4 25.7 0.1 15 14.0 SE 9 11 5 6 1013.1 1012.4 0.0
30/07:00pm 30.1 26.0 -0.3 14 14.5 ESE 11 15 6 8 1012.7 1012.0 0.0
30/06:30pm 30.8 26.2 -0.8 13 15.0 SE 13 19 7 10 1012.2 1011.5 0.0
30/06:00pm 31.4 26.9 -0.3 13 15.3 SE 13 22 7 12 1011.8 1011.1 0.0
30/05:30pm 32.2 27.3 -0.8 12 15.9 SE 15 24 8 13 1011.4 1010.8 0.0
30/05:00pm 33.2 28.6 -1.2 11 16.6 ESE 13 26 7 14 1011.2 1010.6 0.0
30/04:30pm 32.6 28.1 -0.5 12 16.0 ESE 13 20 7 11 1011.1 1010.5 0.0
30/04:00pm 33.1 28.8 -1.3 11 16.5 SE 11 19 6 10 1011.2 1010.6 0.0
30/03:30pm 32.7 26.9 -1.6 11 16.3 SE 19 28 10 15 1011.6 1011.0 0.0
30/03:00pm 33.1 27.5 -0.1 12 16.3 E 19 28 10 15 1012.0 1011.3 0.0
30/02:30pm 32.7 28.7 0.7 13 15.8 SSE 11 19 6 10 1012.6 1011.9 0.0
30/02:00pm 31.6 27.5 -0.1 13 15.4 SE 11 20 6 11 1013.1 1012.4 0.0
30/01:30pm 31.8 27.0 0.0 13 15.5 E 15 24 8 13 1013.7 1013.0 0.0
30/01:00pm 31.8 26.4 1.0 14 15.2 E 19 28 10 15 1014.4 1013.7 0.0
30/12:30pm 31.4 26.8 1.7 15 14.8 E 15 24 8 13 1015.0 1014.3 0.0
30/12:00pm 30.0 24.3 0.6 15 14.3 E 20 35 11 19 1015.5 1014.8 0.0
30/11:30am 30.4 24.9 1.8 16 14.2 ESE 20 33 11 18 1016.2 1015.5 0.0
30/11:00am 30.0 24.2 2.3 17 13.8 ESE 22 33 12 18 1016.5 1015.8 0.0
30/10:30am 29.2 22.2 1.7 17 13.5 E 28 39 15 21 1016.6 1015.9 0.0
30/10:00am 28.4 22.5 1.8 18 13.0 ESE 22 35 12 19 1017.1 1016.4 0.0
30/09:30am 27.1 21.9 2.2 20 12.2 ESE 19 26 10 14 1017.2 1016.5 0.0
30/09:00am 26.2 21.4 2.8 22 11.5 SE 17 24 9 13 1017.2 1016.5 0.2
30/08:30am 25.0 20.3 3.0 24 10.8 SE 17 26 9 14 1016.7 1016.0 0.2

Other formats

Comma delimited format used in spreadsheet applications
http://www.bom.gov.au/fwo/IDQ60801/IDQ60801.94261.axf

JavaScript Object Notation format (JSON) in row-major order
http://www.bom.gov.au/fwo/IDQ60801/IDQ60801.94261.json

Data quality

Most of these data are generated automatically and are frequently updated. Quality checks on data are not normally performed. It is possible for incorrect values to appear. Refer to information at About Latest Weather Observations and please check the disclaimer before using these data.